• Join FlightAware (Why Join?)
  • Login
  • US Flag 
06:11PM EDT


 

Airport Tracker/Info


-or-


 

Live Flight TrackerFlight Track Log ✈ RLI811 ✈ 27-Aug-2013 ✈ KBID - KMVY

Flight Track Log - Related Links

Times and Time Zones

All times are in EDT time to prevent confusion due to time zone crossing. See the RLI811 flight status page for this flight to view local times or setup timezone preferences in your user account.

Time Position Orientation Groundspeed Altitude Reporting Facility
EDT Latitude Longitude Course Direction KTS MPH feet Rate Location/Type
06:58PM 41.1911 -72.1172 80° East 180 207 9,400  Level Boston Center
06:59PM 41.2033 -72.0236 80° East 184 212 9,200 -240 Descending Boston Center
07:00PM 41.2114 -71.9489 82° East 194 223 8,900 -420 Descending Boston Center
07:01PM 41.2214 -71.8800 79° East 197 227 8,400 -480 Descending Boston Center
07:03PM 41.2317 -71.8081 79° East 200 230 8,000 -540 Descending Boston Center
07:04PM 41.2417 -71.7361 80° East 200 230 7,400 -600 Descending Boston Center
07:05PM 41.2494 -71.6644 82° East 197 227 6,900 -600 Descending Boston Center
07:06PM 41.2592 -71.5731 82° East 197 227 6,200 -600 Descending Boston Center
07:08PM 41.2413 -71.5207 114° Southeast  Level FlightAware Approximate
07:15PM 41.2789 -71.3007 77° East  Level Estimated
07:16PM 41.2795 -71.2684 89° East  Level FlightAware Approximate
07:17PM 41.2800 -71.2362 89° East  Level FlightAware Approximate
07:18PM 41.2805 -71.2039 89° East  Level FlightAware Approximate
07:19PM 41.2810 -71.1717 89° East  Level FlightAware Approximate
07:20PM 41.2815 -71.1395 89° East  Level FlightAware Approximate
07:21PM 41.2820 -71.1072 89° East  Level FlightAware Approximate
07:22PM 41.2825 -71.0750 89° East  Level FlightAware Approximate
07:23PM 41.2830 -71.0427 89° East  Level FlightAware Approximate
07:24PM 41.3007 -71.0132 75° East  Level FlightAware Approximate
07:25PM 41.3070 -70.9820 75° East  Level FlightAware Approximate
07:26PM 41.3132 -70.9508 75° East  Level FlightAware Approximate
07:27PM 41.3195 -70.9196 75° East  Level FlightAware Approximate
07:28PM 41.3257 -70.8884 75° East  Level FlightAware Approximate
07:29PM 41.3319 -70.8572 75° East  Level FlightAware Approximate
07:30PM 41.3386 -70.8262 73° East  Level FlightAware Approximate